Time;durP1;ratioP1;P1;durP2;ratioP2;P2;SDS_P1;SDS_P2;PMS_P1;PMS_P2;Temp;Humidity;BMP_temperature;BMP_pressure;BME280_temperature;BME280_humidity;BME280_pressure;Samples;Min_cycle;Max_cycle;Signal;HPM_P1;HPM_P2
2023/12/29 00:02:20;;;;;;;9.55;2.33;;;;;;;10.32;86.70;100767.16;5037846;28;20041;-85
2023/12/29 00:04:45;;;;;;;11.00;2.15;;;;;;;10.23;87.77;100783.19;5066731;28;20071;-86
2023/12/29 00:07:11;;;;;;;13.57;2.88;;;;;;;10.16;87.87;100771.00;5068574;28;20123;-85
2023/12/29 00:09:40;;;;;;;8.48;2.00;;;;;;;10.26;87.67;100772.53;5069968;28;20064;-85
2023/12/29 00:12:07;;;;;;;12.68;2.67;;;;;;;10.12;88.34;100779.00;5069088;28;20060;-85
2023/12/29 00:14:33;;;;;;;6.60;2.25;;;;;;;10.10;88.75;100769.38;5067336;28;20403;-85
2023/12/29 00:16:59;;;;;;;8.02;2.33;;;;;;;10.15;88.80;100780.72;5049044;28;20047;-86
2023/12/29 00:19:25;;;;;;;21.55;2.55;;;;;;;10.26;87.61;100775.19;5067714;28;20121;-85
2023/12/29 00:21:50;;;;;;;12.10;2.50;;;;;;;10.24;88.28;100772.59;5068368;28;20123;-85
2023/12/29 00:24:16;;;;;;;9.30;1.85;;;;;;;10.22;88.84;100766.47;5058009;28;20106;-85
2023/12/29 00:26:42;;;;;;;16.80;3.03;;;;;;;10.10;90.77;100762.28;5057001;28;20033;-84
2023/12/29 00:29:08;;;;;;;14.77;2.63;;;;;;;10.12;91.46;100756.97;5063068;28;20415;-81
2023/12/29 00:31:33;;;;;;;10.98;2.65;;;;;;;10.22;90.54;100752.38;5069669;28;20111;-81
2023/12/29 00:33:58;;;;;;;12.75;2.38;;;;;;;10.19;91.15;100757.69;5071302;28;20068;-81
2023/12/29 00:36:24;;;;;;;11.98;2.72;;;;;;;10.07;91.65;100740.34;5070249;28;20037;-82
2023/12/29 00:38:49;;;;;;;17.42;3.55;;;;;;;10.07;91.49;100735.91;5061933;28;20491;-82
2023/12/29 00:41:15;;;;;;;6.65;1.80;;;;;;;10.10;91.15;100748.19;5027535;28;20487;-82
2023/12/29 00:43:41;;;;;;;14.85;3.00;;;;;;;10.12;91.70;100736.69;5067449;28;20049;-83
2023/12/29 00:46:08;;;;;;;9.95;2.20;;;;;;;10.08;92.01;100735.00;5070090;28;20499;-81
2023/12/29 00:48:34;;;;;;;11.38;2.47;;;;;;;9.94;95.78;100741.47;5069531;28;20056;-81
2023/12/29 00:51:03;;;;;;;12.80;2.35;;;;;;;9.81;97.48;100725.84;5069898;28;20047;-84
2023/12/29 00:53:31;;;;;;;9.73;2.80;;;;;;;9.87;96.90;100764.56;5053210;28;20037;-81
2023/12/29 00:55:57;;;;;;;18.35;3.08;;;;;;;9.78;98.11;100747.09;5065978;28;20048;-78
2023/12/29 00:58:23;;;;;;;8.55;2.15;;;;;;;9.60;100.00;100747.47;5074972;28;20041;-82
2023/12/29 01:00:48;;;;;;;9.13;2.53;;;;;;;9.68;99.50;100732.31;5074654;28;20075;-81
2023/12/29 01:03:14;;;;;;;8.60;2.38;;;;;;;9.57;100.00;100731.63;5067633;28;20487;-82
2023/12/29 01:05:39;;;;;;;11.32;2.92;;;;;;;9.43;100.00;100729.28;5074488;28;20050;-82
2023/12/29 01:08:05;;;;;;;12.38;2.72;;;;;;;9.45;100.00;100730.13;5074734;28;20048;-82
2023/12/29 01:10:30;;;;;;;12.73;3.08;;;;;;;9.44;100.00;100736.28;5072967;28;20043;-82
2023/12/29 01:12:56;;;;;;;9.55;2.55;;;;;;;9.37;100.00;100735.56;5074511;28;20056;-82
2023/12/29 01:15:21;;;;;;;8.27;1.98;;;;;;;9.33;100.00;100736.50;5039861;28;20435;-82
2023/12/29 01:17:47;;;;;;;13.38;2.65;;;;;;;9.29;100.00;100723.38;5073538;28;20032;-81
2023/12/29 01:20:13;;;;;;;16.73;2.50;;;;;;;9.23;100.00;100742.84;5074656;28;20119;-84
2023/12/29 01:22:38;;;;;;;10.18;2.50;;;;;;;9.20;100.00;100729.72;5056801;28;20086;-83
2023/12/29 01:25:04;;;;;;;14.60;2.60;;;;;;;9.12;100.00;100721.03;5073212;28;20037;-85
2023/12/29 01:27:30;;;;;;;10.45;2.90;;;;;;;8.96;100.00;100729.22;5056848;28;20139;-85
2023/12/29 01:29:55;;;;;;;11.52;3.03;;;;;;;8.98;100.00;100719.50;5051385;28;20401;-83
2023/12/29 01:32:21;;;;;;;10.35;2.22;;;;;;;8.95;100.00;100732.78;5050479;28;20043;-83
2023/12/29 01:34:47;;;;;;;11.25;2.63;;;;;;;9.04;100.00;100721.16;5073701;28;20404;-84
2023/12/29 01:37:13;;;;;;;15.30;2.67;;;;;;;8.79;100.00;100731.28;5051271;28;20032;-86
2023/12/29 01:39:39;;;;;;;9.68;2.60;;;;;;;8.87;100.00;100729.38;5073590;28;20399;-84
2023/12/29 01:42:05;;;;;;;11.05;2.47;;;;;;;8.72;100.00;100732.25;5074895;28;20045;-85
2023/12/29 01:44:31;;;;;;;9.93;2.00;;;;;;;8.67;100.00;100719.13;5071228;28;20119;-84
2023/12/29 01:47:00;;;;;;;11.73;3.25;;;;;;;8.67;100.00;100732.34;5068283;28;20033;-83
2023/12/29 01:49:27;;;;;;;11.77;2.97;;;;;;;8.64;100.00;100740.31;5056183;28;20190;-84
2023/12/29 01:51:57;;;;;;;13.82;2.60;;;;;;;8.61;100.00;100727.16;5069375;28;20042;-85
2023/12/29 01:54:44;;;;;;;8.27;2.40;;;;;;;8.67;100.00;100723.53;5073242;28;20370;-85
2023/12/29 01:57:10;;;;;;;12.23;2.20;;;;;;;8.71;100.00;100723.47;5072456;28;20044;-83
2023/12/29 01:59:38;;;;;;;9.07;2.08;;;;;;;8.63;100.00;100722.75;5055849;28;20032;-82
2023/12/29 02:02:04;;;;;;;13.88;2.45;;;;;;;8.69;100.00;100719.13;5072764;28;20112;-82
2023/12/29 02:04:31;;;;;;;8.65;3.17;;;;;;;8.67;100.00;100713.00;5056498;28;20036;-83
2023/12/29 02:06:56;;;;;;;9.55;2.10;;;;;;;8.75;100.00;100722.53;5073018;28;20036;-83
2023/12/29 02:09:24;;;;;;;13.43;2.28;;;;;;;8.58;100.00;100728.09;5052298;28;20075;-83
2023/12/29 02:11:50;;;;;;;9.80;2.25;;;;;;;8.74;100.00;100723.41;5063678;28;20037;-84
2023/12/29 02:14:16;;;;;;;12.43;2.83;;;;;;;8.60;100.00;100731.56;5068037;28;20375;-83
2023/12/29 02:17:21;;;;;;;9.32;2.47;;;;;;;8.60;100.00;100725.41;5074300;28;20033;-83
2023/12/29 02:19:49;;;;;;;12.93;3.08;;;;;;;8.64;100.00;100736.81;5075746;28;20046;-84
2023/12/29 02:22:14;;;;;;;16.17;3.42;;;;;;;8.67;100.00;100723.53;5072463;28;20068;-84
2023/12/29 02:24:47;;;;;;;16.50;2.80;;;;;;;8.67;100.00;100734.09;5059555;28;20068;-84
2023/12/29 02:27:43;;;;;;;16.17;3.03;;;;;;;8.64;100.00;100726.25;5055875;28;20388;-83
2023/12/29 02:30:13;;;;;;;16.75;3.45;;;;;;;8.63;100.00;100714.81;5066090;28;20028;-84
2023/12/29 02:32:42;;;;;;;9.77;2.35;;;;;;;8.70;100.00;100721.72;5066362;28;20463;-83
2023/12/29 02:35:17;;;;;;;10.95;2.55;;;;;;;8.74;100.00;100726.06;5071639;28;20032;-83
2023/12/29 02:37:43;;;;;;;16.50;2.92;;;;;;;8.75;100.00;100721.66;5072300;28;20062;-84
2023/12/29 02:40:09;;;;;;;16.98;2.83;;;;;;;8.80;100.00;100717.16;5071959;28;20032;-83
2023/12/29 02:42:35;;;;;;;12.57;2.70;;;;;;;8.85;100.00;100730.28;5055760;28;20451;-84
2023/12/29 02:45:00;;;;;;;14.38;2.38;;;;;;;8.87;100.00;100710.03;5072705;28;20127;-86
2023/12/29 02:47:26;;;;;;;10.75;2.70;;;;;;;8.80;100.00;100715.41;5052572;28;20055;-86
2023/12/29 02:49:54;;;;;;;13.18;3.33;;;;;;;8.79;100.00;100721.56;5066845;28;20052;-84
2023/12/29 02:52:20;;;;;;;10.38;2.65;;;;;;;8.80;100.00;100733.00;5060460;28;20036;-85
2023/12/29 02:54:45;;;;;;;9.50;2.35;;;;;;;9.02;100.00;100726.47;5088543;28;20119;-84
2023/12/29 02:57:11;;;;;;;16.50;2.72;;;;;;;8.99;100.00;100730.94;5089468;28;20119;-84
2023/12/29 02:59:37;;;;;;;12.18;2.58;;;;;;;8.95;100.00;100724.84;5072047;28;20044;-84
2023/12/29 03:02:03;;;;;;;8.15;2.30;;;;;;;8.94;100.00;100716.94;5053170;28;20081;-83
2023/12/29 03:04:29;;;;;;;11.48;2.38;;;;;;;9.03;100.00;100719.44;5072521;28;20123;-84
2023/12/29 03:06:54;;;;;;;14.73;2.75;;;;;;;9.08;100.00;100714.94;5073441;28;20533;-84
2023/12/29 03:09:21;;;;;;;10.98;2.40;;;;;;;9.06;100.00;100724.66;5074137;28;20028;-84
2023/12/29 03:11:46;;;;;;;10.95;2.05;;;;;;;9.20;100.00;100719.13;5071408;28;20037;-86
2023/12/29 03:14:12;;;;;;;10.15;2.22;;;;;;;9.13;100.00;100710.44;5071270;28;20123;-86
2023/12/29 03:16:37;;;;;;;8.48;2.42;;;;;;;9.16;100.00;100702.47;5071233;28;20040;-85
2023/12/29 03:19:03;;;;;;;9.90;2.33;;;;;;;9.20;100.00;100706.78;5051480;28;20435;-84
2023/12/29 03:21:28;;;;;;;10.13;2.00;;;;;;;9.20;100.00;100719.13;5072578;28;20437;-85
2023/12/29 03:23:54;;;;;;;9.65;2.45;;;;;;;9.13;100.00;100702.53;5071351;28;20036;-86
2023/12/29 03:26:19;;;;;;;9.05;2.17;;;;;;;9.14;100.00;100703.38;5056869;28;20084;-84
2023/12/29 03:28:45;;;;;;;16.55;4.22;;;;;;;9.08;100.00;100703.50;5088234;28;20068;-85
2023/12/29 03:31:10;;;;;;;11.38;2.20;;;;;;;9.13;100.00;100704.28;5054917;28;20043;-85
2023/12/29 03:33:35;;;;;;;20.88;3.70;;;;;;;9.10;100.00;100705.22;5071802;28;20497;-86
2023/12/29 03:36:01;;;;;;;10.07;2.60;;;;;;;9.21;100.00;100708.53;5088003;28;20040;-85
2023/12/29 03:38:26;;;;;;;18.13;3.38;;;;;;;9.14;100.00;100693.69;5072657;28;20033;-86
2023/12/29 03:40:52;;;;;;;12.30;2.30;;;;;;;9.12;100.00;100711.31;5071474;28;20036;-86
2023/12/29 03:43:18;;;;;;;7.70;1.98;;;;;;;9.25;100.00;100706.72;5072674;28;20432;-84
2023/12/29 03:45:44;;;;;;;11.88;2.55;;;;;;;9.13;100.00;100701.66;5084326;28;20136;-84
2023/12/29 03:48:09;;;;;;;12.75;2.85;;;;;;;9.20;100.00;100703.28;5071010;28;20347;-84
2023/12/29 03:50:36;;;;;;;17.63;2.55;;;;;;;9.31;100.00;100698.66;5070778;28;20483;-85
2023/12/29 03:53:01;;;;;;;15.30;2.38;;;;;;;9.29;100.00;100711.03;5072248;28;20445;-85
2023/12/29 03:55:26;;;;;;;17.23;2.88;;;;;;;9.45;100.00;100698.41;5070780;28;20040;-84
2023/12/29 03:57:52;;;;;;;8.27;2.47;;;;;;;9.38;100.00;100694.13;5034195;28;20091;-84
2023/12/29 04:00:18;;;;;;;13.45;2.95;;;;;;;9.33;100.00;100696.00;5067112;28;20131;-84
2023/12/29 04:02:43;;;;;;;11.05;2.10;;;;;;;9.40;100.00;100706.41;5070893;28;20092;-84
2023/12/29 04:05:11;;;;;;;19.55;2.50;;;;;;;9.37;99.48;100693.28;5072478;28;20032;-84
2023/12/29 04:07:40;;;;;;;12.43;2.80;;;;;;;9.32;100.00;100689.84;5054242;28;20036;-84
2023/12/29 04:10:06;;;;;;;11.27;3.10;;;;;;;9.36;100.00;100690.66;5050439;28;20128;-83
2023/12/29 04:12:31;;;;;;;12.05;2.50;;;;;;;9.39;98.67;100686.16;5053422;28;20045;-84
2023/12/29 04:14:57;;;;;;;11.75;2.88;;;;;;;9.55;97.52;100691.16;5070472;28;20044;-83
2023/12/29 04:17:24;;;;;;;15.88;3.10;;;;;;;9.42;98.18;100687.88;5054376;28;20028;-84
2023/12/29 04:19:50;;;;;;;9.82;2.67;;;;;;;9.59;97.18;100693.69;5086850;28;20063;-83
2023/12/29 04:22:15;;;;;;;14.18;2.75;;;;;;;9.45;97.64;100683.41;5074091;28;20044;-84
2023/12/29 04:24:41;;;;;;;10.82;2.42;;;;;;;9.45;98.27;100679.91;5053743;28;20036;-84
2023/12/29 04:27:06;;;;;;;11.90;2.22;;;;;;;9.38;98.67;100679.13;5053722;28;20119;-84
2023/12/29 04:29:31;;;;;;;14.57;2.85;;;;;;;9.37;98.49;100701.19;5071699;28;20100;-83
2023/12/29 04:31:57;;;;;;;10.63;2.58;;;;;;;9.40;98.43;100681.75;5052171;28;20128;-83
2023/12/29 04:34:22;;;;;;;9.32;3.00;;;;;;;9.55;98.00;100701.75;5071576;28;20059;-85
2023/12/29 04:36:48;;;;;;;12.77;3.10;;;;;;;9.38;97.61;100687.06;5073863;28;20063;-84
2023/12/29 04:39:15;;;;;;;10.25;2.53;;;;;;;9.41;97.38;100694.06;5041230;28;20032;-83
2023/12/29 04:41:44;;;;;;;13.35;2.55;;;;;;;9.38;98.11;100699.41;5057765;28;20036;-84
2023/12/29 04:44:09;;;;;;;13.30;3.38;;;;;;;9.41;97.61;100697.56;5090499;28;20036;-84
2023/12/29 04:46:35;;;;;;;13.18;3.15;;;;;;;9.33;97.70;100701.28;5070226;28;20048;-83
2023/12/29 04:49:02;;;;;;;10.60;2.88;;;;;;;9.45;96.52;100695.75;5075003;28;20064;-84
2023/12/29 04:51:27;;;;;;;12.80;2.78;;;;;;;9.48;95.62;100682.47;5074548;28;20604;-84
2023/12/29 04:53:53;;;;;;;14.68;3.00;;;;;;;9.40;96.29;100698.50;5045810;28;20123;-84
2023/12/29 04:56:19;;;;;;;15.50;2.53;;;;;;;9.37;96.69;100709.13;5057421;28;20078;-84
2023/12/29 04:58:44;;;;;;;14.82;3.13;;;;;;;9.48;95.26;100709.78;5060134;28;20096;-84
2023/12/29 05:01:10;;;;;;;13.40;2.95;;;;;;;9.35;95.59;100697.72;5056756;28;20044;-85
2023/12/29 05:03:35;;;;;;;21.15;3.80;;;;;;;9.33;96.42;100722.41;5074798;28;20064;-84
2023/12/29 05:06:00;;;;;;;16.20;2.85;;;;;;;9.35;95.73;100704.78;5073411;28;20044;-85
2023/12/29 05:08:26;;;;;;;11.13;2.65;;;;;;;9.48;95.44;100706.25;5074451;28;20044;-84
2023/12/29 05:10:55;;;;;;;20.55;3.15;;;;;;;9.50;94.30;100714.19;5047918;28;20037;-84
2023/12/29 05:13:21;;;;;;;19.63;3.90;;;;;;;9.34;95.56;100706.53;5073251;28;20040;-84
2023/12/29 05:15:46;;;;;;;11.07;2.88;;;;;;;9.46;94.80;100697.50;5053113;28;20415;-84
2023/12/29 05:18:11;;;;;;;20.30;3.45;;;;;;;9.41;94.87;100692.28;5063165;28;20428;-83
2023/12/29 05:20:37;;;;;;;16.35;3.05;;;;;;;9.41;95.08;100705.50;5047615;28;20067;-84
2023/12/29 05:23:03;;;;;;;20.73;3.50;;;;;;;9.34;95.54;100732.06;5066724;28;20033;-85
2023/12/29 05:25:28;;;;;;;20.05;4.43;;;;;;;9.34;95.85;100697.72;5071404;28;20035;-84
2023/12/29 05:27:54;;;;;;;19.67;2.83;;;;;;;9.38;95.43;100700.28;5068687;28;20028;-84
2023/12/29 05:30:19;;;;;;;15.52;3.20;;;;;;;9.42;95.48;100704.63;5052489;28;20041;-83
2023/12/29 05:32:45;;;;;;;13.60;2.50;;;;;;;9.34;96.46;100701.22;5056046;28;20136;-83
2023/12/29 05:35:10;;;;;;;14.30;3.17;;;;;;;9.28;97.54;100703.13;5072710;28;20032;-83
2023/12/29 05:37:36;;;;;;;7.75;2.25;;;;;;;9.28;97.48;100700.50;5071172;28;20522;-85
2023/12/29 05:40:02;;;;;;;12.93;2.70;;;;;;;9.15;98.01;100689.25;5074197;28;20056;-84
2023/12/29 05:42:27;;;;;;;17.27;3.20;;;;;;;9.20;98.79;100693.59;5060134;28;20476;-84
2023/12/29 05:44:53;;;;;;;12.40;2.67;;;;;;;9.25;98.48;100691.72;5068945;28;20420;-83
2023/12/29 05:47:18;;;;;;;9.93;2.10;;;;;;;9.29;98.66;100702.22;5047532;28;20029;-85
2023/12/29 05:49:44;;;;;;;15.95;2.80;;;;;;;9.20;99.56;100698.00;5037485;28;20480;-84
2023/12/29 05:52:09;;;;;;;17.83;2.85;;;;;;;9.14;100.00;100703.38;5062022;28;20449;-84
2023/12/29 05:54:35;;;;;;;14.30;2.70;;;;;;;9.13;100.00;100691.94;5067652;28;20044;-85
2023/12/29 05:57:01;;;;;;;14.10;2.97;;;;;;;9.10;100.00;100699.94;5069297;28;20041;-85
2023/12/29 05:59:27;;;;;;;11.15;2.60;;;;;;;9.15;100.00;100698.09;5057877;28;20029;-84
2023/12/29 06:01:52;;;;;;;19.17;3.53;;;;;;;9.22;99.64;100685.59;5035672;28;20036;-85
2023/12/29 06:04:18;;;;;;;9.40;2.58;;;;;;;9.17;100.00;100701.56;5045213;28;20044;-85
2023/12/29 06:06:43;;;;;;;14.23;3.10;;;;;;;9.17;100.00;100695.38;5051670;28;20033;-84
2023/12/29 06:09:10;;;;;;;8.93;2.28;;;;;;;9.26;99.80;100697.88;5057941;28;20045;-84
2023/12/29 06:11:36;;;;;;;14.48;2.55;;;;;;;9.38;99.00;100696.78;5072328;28;20027;-84
2023/12/29 06:14:02;;;;;;;10.63;3.15;;;;;;;9.31;100.00;100705.72;5069481;28;20029;-85
2023/12/29 06:16:29;;;;;;;7.30;2.75;;;;;;;9.35;100.00;100707.41;5062911;28;20396;-84
2023/12/29 06:18:55;;;;;;;8.40;2.17;;;;;;;9.28;100.00;100703.13;5067288;28;20047;-81
2023/12/29 06:21:20;;;;;;;9.88;2.35;;;;;;;9.15;100.00;100692.81;5052650;28;20041;-82
2023/12/29 06:23:46;;;;;;;15.07;2.80;;;;;;;9.08;100.00;100692.94;5065300;28;20170;-83
2023/12/29 06:26:19;;;;;;;12.93;2.53;;;;;;;9.06;100.00;100697.38;5055379;28;20067;-82
2023/12/29 06:28:45;;;;;;;17.25;2.78;;;;;;;8.92;100.00;100698.47;5071698;28;20464;-85
2023/12/29 06:31:11;;;;;;;14.35;3.00;;;;;;;8.82;100.00;100686.31;5058092;28;20534;-82
2023/12/29 06:33:40;;;;;;;14.80;2.28;;;;;;;8.80;100.00;100698.69;5058460;28;20476;-82
2023/12/29 06:36:06;;;;;;;14.23;2.47;;;;;;;8.79;100.00;100702.22;5060458;28;20052;-82
2023/12/29 06:38:33;;;;;;;10.68;2.05;;;;;;;8.77;100.00;100693.47;5068938;28;20029;-83
2023/12/29 06:41:01;;;;;;;8.30;2.13;;;;;;;8.72;100.00;100685.59;5053206;28;20119;-82
2023/12/29 06:43:27;;;;;;;11.30;2.58;;;;;;;8.77;100.00;100691.69;5062996;28;20439;-81
2023/12/29 06:45:52;;;;;;;14.13;2.65;;;;;;;8.74;100.00;100688.22;5044843;28;20065;-82
2023/12/29 06:48:18;;;;;;;9.98;2.22;;;;;;;8.83;100.00;100690.72;5071109;28;20116;-84
2023/12/29 06:50:43;;;;;;;8.48;2.47;;;;;;;9.01;100.00;100693.03;5034865;28;20053;-83
2023/12/29 06:53:09;;;;;;;13.00;3.20;;;;;;;9.01;100.00;100694.81;5049661;28;20040;-82
2023/12/29 06:55:34;;;;;;;11.50;2.22;;;;;;;8.91;100.00;100690.59;5070919;28;20142;-82
2023/12/29 06:58:00;;;;;;;9.38;2.30;;;;;;;8.96;100.00;100699.31;5072639;28;20045;-82
2023/12/29 07:00:25;;;;;;;9.52;2.45;;;;;;;8.87;100.00;100695.03;5072339;28;20368;-82
2023/12/29 07:02:51;;;;;;;11.07;2.15;;;;;;;8.86;100.00;100680.09;5069695;28;20033;-82
2023/12/29 07:05:16;;;;;;;8.02;2.53;;;;;;;8.80;100.00;100686.38;5064210;28;20072;-82
2023/12/29 07:07:42;;;;;;;12.63;2.35;;;;;;;8.82;100.00;100683.69;5072591;28;20445;-83
2023/12/29 07:10:08;;;;;;;7.28;2.22;;;;;;;8.84;100.00;100681.91;5061233;28;20037;-83
2023/12/29 07:12:33;;;;;;;10.60;2.20;;;;;;;8.88;100.00;100669.50;5069304;28;20492;-82
2023/12/29 07:14:59;;;;;;;8.40;2.13;;;;;;;8.84;100.00;100671.34;5071982;28;20497;-80
2023/12/29 07:17:24;;;;;;;9.35;3.60;;;;;;;8.96;100.00;100664.97;5070777;28;20040;-81
2023/12/29 07:19:50;;;;;;;12.63;2.33;;;;;;;8.89;100.00;100669.47;5071093;28;20048;-82
2023/12/29 07:22:15;;;;;;;11.15;2.15;;;;;;;8.90;100.00;100681.81;5068911;28;20040;-81
2023/12/29 07:24:41;;;;;;;11.48;2.65;;;;;;;8.85;100.00;100688.03;5062873;28;20089;-82
2023/12/29 07:27:07;;;;;;;14.75;2.70;;;;;;;8.91;100.00;100687.94;5054047;28;20431;-83
2023/12/29 07:29:33;;;;;;;10.02;2.58;;;;;;;8.95;100.00;100676.41;5072127;28;20071;-84
2023/12/29 07:31:59;;;;;;;6.88;1.67;;;;;;;8.96;100.00;100681.69;5050430;28;20029;-81
2023/12/29 07:34:25;;;;;;;13.90;3.15;;;;;;;9.06;100.00;100671.81;5058678;28;20369;-79
2023/12/29 07:36:51;;;;;;;13.27;2.88;;;;;;;9.06;100.00;100676.25;5070695;28;20032;-83
2023/12/29 07:39:17;;;;;;;14.02;2.58;;;;;;;8.95;100.00;100682.59;5071636;28;20111;-83
2023/12/29 07:41:43;;;;;;;16.83;2.80;;;;;;;8.93;100.00;100694.09;5071882;28;20037;-84
2023/12/29 07:44:12;;;;;;;7.47;2.03;;;;;;;8.89;100.00;100682.69;5070280;28;20119;-83
2023/12/29 07:46:39;;;;;;;14.57;2.50;;;;;;;8.91;100.00;100695.88;5037225;28;20032;-82
2023/12/29 07:49:04;;;;;;;11.10;2.40;;;;;;;8.90;100.00;100684.44;5070233;28;20446;-81
2023/12/29 07:51:30;;;;;;;12.70;3.38;;;;;;;8.90;100.00;100697.66;5059302;28;20049;-83
2023/12/29 07:53:56;;;;;;;9.05;1.92;;;;;;;9.09;100.00;100690.25;5070136;28;20039;-82
2023/12/29 07:56:21;;;;;;;8.35;3.03;;;;;;;8.99;100.00;100697.47;5071780;28;20099;-83
2023/12/29 07:58:47;;;;;;;6.97;2.05;;;;;;;8.96;100.00;100699.31;5058191;28;20047;-84
2023/12/29 08:01:12;;;;;;;5.97;2.40;;;;;;;8.99;100.00;100709.81;5054049;28;20498;-83
2023/12/29 08:03:38;;;;;;;8.43;2.60;;;;;;;8.98;100.00;100695.75;5065982;28;20031;-81
2023/12/29 08:06:03;;;;;;;4.43;2.13;;;;;;;9.12;100.00;100692.84;5072257;28;20443;-83
2023/12/29 08:08:29;;;;;;;7.93;2.53;;;;;;;9.10;100.00;100693.75;5074331;28;20029;-82
2023/12/29 08:10:55;;;;;;;5.13;1.70;;;;;;;9.20;100.00;100675.09;5074704;28;20410;-83
2023/12/29 08:13:20;;;;;;;9.65;2.25;;;;;;;9.11;100.00;100672.59;5074484;28;20037;-82
2023/12/29 08:15:46;;;;;;;5.63;1.73;;;;;;;9.10;100.00;100677.91;5075861;28;20037;-84
2023/12/29 08:18:11;;;;;;;7.70;2.13;;;;;;;9.13;100.00;100677.88;5075817;28;20048;-83
2023/12/29 08:20:37;;;;;;;6.45;2.00;;;;;;;9.09;100.00;100681.47;5050569;28;20037;-83
2023/12/29 08:23:02;;;;;;;4.80;1.40;;;;;;;9.12;100.00;100671.69;5037772;28;20114;-81
2023/12/29 08:25:29;;;;;;;7.68;1.85;;;;;;;9.16;100.00;100685.75;5074036;28;20020;-84
2023/12/29 08:27:56;;;;;;;7.55;2.08;;;;;;;9.16;100.00;100698.94;5073867;28;20040;-84
2023/12/29 08:30:21;;;;;;;5.25;1.70;;;;;;;9.29;100.00;100702.22;5057217;28;20215;-84
2023/12/29 08:32:47;;;;;;;5.47;1.60;;;;;;;9.23;100.00;100693.50;5073834;28;20044;-83
2023/12/29 08:35:12;;;;;;;6.47;1.73;;;;;;;9.30;100.00;100690.75;5074730;28;20032;-85
2023/12/29 08:37:38;;;;;;;4.70;1.77;;;;;;;9.11;100.00;100685.81;5056979;28;20492;-83
2023/12/29 08:40:04;;;;;;;6.28;1.67;;;;;;;9.13;100.00;100683.16;5056977;28;20436;-84
2023/12/29 08:42:30;;;;;;;5.60;1.55;;;;;;;9.14;100.00;100695.47;5057203;28;20549;-83
2023/12/29 08:44:55;;;;;;;5.65;1.52;;;;;;;9.20;100.00;100696.22;5068757;28;20044;-83
2023/12/29 08:47:21;;;;;;;6.80;1.70;;;;;;;9.20;100.00;100704.16;5074899;28;20067;-84
2023/12/29 08:49:48;;;;;;;6.55;1.67;;;;;;;9.20;100.00;100698.00;5074260;28;20060;-83
2023/12/29 08:52:14;;;;;;;3.42;1.25;;;;;;;9.28;100.00;100697.84;5060346;28;20119;-85
2023/12/29 08:54:39;;;;;;;5.05;1.60;;;;;;;9.30;100.00;100694.28;5073838;28;20048;-84
2023/12/29 08:57:06;;;;;;;6.97;1.40;;;;;;;9.34;100.00;100700.38;5073883;28;20040;-85
2023/12/29 08:59:32;;;;;;;3.75;1.35;;;;;;;9.48;100.00;100695.69;5040925;28;20114;-85
2023/12/29 09:01:58;;;;;;;4.80;1.35;;;;;;;9.31;100.00;100703.06;5043503;28;20064;-85
2023/12/29 09:04:24;;;;;;;5.07;1.73;;;;;;;9.29;100.00;100704.88;5072053;28;20048;-84
2023/12/29 09:06:49;;;;;;;6.68;1.60;;;;;;;9.48;100.00;100703.63;5072959;28;20108;-83
2023/12/29 09:09:15;;;;;;;5.90;1.73;;;;;;;9.43;100.00;100700.19;5040097;28;20040;-84
2023/12/29 09:11:42;;;;;;;4.90;1.40;;;;;;;9.25;100.00;100702.28;5073591;28;20059;-83
2023/12/29 09:14:07;;;;;;;5.68;1.60;;;;;;;9.30;100.00;100702.22;5072408;28;20049;-83
2023/12/29 09:16:35;;;;;;;4.43;1.25;;;;;;;9.33;100.00;100707.44;5073323;28;20036;-85
2023/12/29 09:19:01;;;;;;;5.90;2.03;;;;;;;9.41;100.00;100713.44;5069935;28;20081;-84
2023/12/29 09:21:26;;;;;;;3.22;1.02;;;;;;;9.23;100.00;100725.22;5066377;28;20040;-85
2023/12/29 09:23:52;;;;;;;4.00;1.02;;;;;;;9.11;100.00;100721.94;5056986;28;20025;-83
2023/12/29 09:26:18;;;;;;;5.57;1.23;;;;;;;9.20;100.00;100730.56;5050292;28;20044;-83
2023/12/29 09:28:44;;;;;;;4.35;1.40;;;;;;;9.02;100.00;100733.53;5074737;28;20033;-85
2023/12/29 09:31:10;;;;;;;5.22;1.55;;;;;;;8.96;100.00;100723.94;5068528;28;20084;-84
2023/12/29 09:33:36;;;;;;;4.35;1.30;;;;;;;8.95;100.00;100730.13;5040019;28;20040;-84
2023/12/29 09:36:02;;;;;;;5.68;1.52;;;;;;;9.00;100.00;100725.66;5073033;28;20051;-85
2023/12/29 09:38:28;;;;;;;3.85;1.52;;;;;;;9.04;100.00;100724.66;5056292;28;20036;-84
2023/12/29 09:40:58;;;;;;;2.03;0.88;;;;;;;9.02;100.00;100721.19;5068389;28;20040;-84
2023/12/29 09:43:25;;;;;;;1.63;0.87;;;;;;;9.15;100.00;100724.50;5068940;28;20028;-83
2023/12/29 09:45:52;;;;;;;4.47;1.65;;;;;;;9.07;100.00;100723.75;5070439;28;20291;-85
2023/12/29 09:48:19;;;;;;;5.35;1.30;;;;;;;9.04;100.00;100723.81;5073325;28;20065;-85
2023/12/29 09:50:46;;;;;;;1.80;1.02;;;;;;;9.11;100.00;100737.78;5045821;28;20048;-85
2023/12/29 09:53:13;;;;;;;1.63;0.90;;;;;;;9.21;100.00;100749.94;5036868;28;20128;-86
2023/12/29 09:55:40;;;;;;;4.05;1.15;;;;;;;9.35;100.00;100736.47;5072973;28;20505;-85
2023/12/29 09:58:07;;;;;;;3.25;1.23;;;;;;;9.20;100.00;100741.13;5070395;28;20141;-85
2023/12/29 10:00:34;;;;;;;5.07;2.03;;;;;;;9.19;100.00;100735.88;5073143;28;20388;-86
2023/12/29 10:03:00;;;;;;;4.82;1.20;;;;;;;9.20;100.00;100745.56;5064319;28;20420;-87
2023/12/29 10:05:26;;;;;;;3.95;1.10;;;;;;;9.27;100.00;100741.88;5070182;28;20032;-85
2023/12/29 10:07:52;;;;;;;4.65;1.30;;;;;;;9.31;100.00;100740.06;5074368;28;20036;-85
2023/12/29 10:10:19;;;;;;;1.85;1.15;;;;;;;9.26;100.00;100741.00;5070191;28;20044;-85
2023/12/29 10:12:48;;;;;;;4.97;1.25;;;;;;;9.25;100.00;100749.00;5074398;28;20090;-86
2023/12/29 10:15:47;;;;;;;3.53;1.40;;;;;;;9.27;100.00;100741.88;5073198;28;20028;-86
2023/12/29 10:18:26;;;;;;;4.85;1.10;;;;;;;9.29;100.00;100749.78;5067235;28;20036;-85
2023/12/29 10:21:07;;;;;;;6.18;1.33;;;;;;;9.33;100.00;100749.72;5055836;28;20127;-85
2023/12/29 10:23:40;;;;;;;3.30;1.15;;;;;;;9.35;100.00;100760.28;5055496;28;20025;-86
2023/12/29 10:26:10;;;;;;;2.53;1.20;;;;;;;9.33;100.00;100751.50;5071473;28;20369;-86
2023/12/29 10:28:35;;;;;;;3.38;1.20;;;;;;;9.45;100.00;100773.28;5073513;28;20036;-87
2023/12/29 10:31:01;;;;;;;4.93;1.45;;;;;;;9.37;100.00;100775.19;5057667;28;20349;-86
2023/12/29 10:33:29;;;;;;;2.47;1.20;;;;;;;9.40;100.00;100774.28;5066373;28;20036;-86
2023/12/29 10:36:03;;;;;;;3.63;1.20;;;;;;;9.41;100.00;100774.22;5054510;28;20039;-86
2023/12/29 10:38:29;;;;;;;3.25;1.05;;;;;;;9.42;100.00;100781.28;5072415;28;20090;-85
2023/12/29 10:40:54;;;;;;;5.30;1.40;;;;;;;9.43;100.00;100775.06;5066509;28;20086;-85
2023/12/29 10:43:26;;;;;;;5.03;1.90;;;;;;;9.44;100.00;100778.59;5073390;28;20344;-86
2023/12/29 10:46:07;;;;;;;4.60;1.20;;;;;;;9.48;100.00;100785.56;5073895;28;20360;-87
2023/12/29 10:48:32;;;;;;;2.35;0.90;;;;;;;9.50;100.00;100782.91;5057774;28;20492;-85
2023/12/29 10:50:58;;;;;;;2.38;1.13;;;;;;;9.50;100.00;100788.19;5064535;28;20099;-86
2023/12/29 10:53:23;;;;;;;3.55;1.38;;;;;;;9.60;100.00;100787.13;5068319;28;20105;-86
2023/12/29 10:55:49;;;;;;;3.50;1.25;;;;;;;9.58;100.00;100780.97;5071990;28;20028;-86
2023/12/29 10:58:17;;;;;;;3.85;1.15;;;;;;;9.61;100.00;100775.63;5064283;28;20055;-86
2023/12/29 11:00:43;;;;;;;6.35;1.60;;;;;;;9.58;100.00;100781.84;5073420;28;20083;-85
2023/12/29 11:03:15;;;;;;;3.22;1.38;;;;;;;9.62;100.00;100772.97;5055651;28;20043;-86
2023/12/29 11:05:41;;;;;;;3.97;1.15;;;;;;;9.82;100.00;100779.66;5071375;28;20115;-84
2023/12/29 11:08:18;;;;;;;3.95;1.50;;;;;;;9.73;100.00;100772.75;5071862;28;20040;-86
2023/12/29 11:10:45;;;;;;;2.13;1.10;;;;;;;9.88;100.00;100776.88;5072043;28;20044;-85
2023/12/29 11:13:13;;;;;;;3.63;1.30;;;;;;;9.89;100.00;100770.66;5072413;28;20036;-87
2023/12/29 11:15:44;;;;;;;10.75;1.40;;;;;;;9.81;100.00;100776.09;5060422;28;20036;-85
2023/12/29 11:18:12;;;;;;;;;;;;;;;9.85;100.00;100772.50;5063738;28;20075;-85
2023/12/29 11:20:38;;;;;;;5.70;1.70;;;;;;;9.89;100.00;100771.56;5061348;28;19912;-84